Xin Dan Dong — BPBY — position and weather

sailwx.info

Track history (hours):
 
Tides and Currents Weather Stations Pressure Air Temp Water Temp Dewpoint Dewpoint Depression Visibility Wind Speed Wind Dir Waves Ship Positions

Xin Dan Dong

Last reported at 2014-Oct-24 09:33 UTC. Time now 2014-Oct-25 00:34 UTC.
Position N 38°53' E 118°09'.

Length 263 m; draft 7.3 m.

Type: Cargo ship. MMSI: 413153000.

Date/timePositionNaut miles runAvg speedWind from/ knotsBaromVisibWave heightAir tempDewpointWater temp
2014-Oct-24 09:33N 38°53' E 118°09'1111.3
2014-Oct-24 08:33N 38°57' E 117°55'7 7.3
2014-Oct-24 07:33N 38°60' E 117°47'0 0.1
2014-Oct-24 06:27N 38°60' E 117°47'0 0.0
2014-Oct-24 05:33N 38°60' E 117°47'0 0.0
2014-Oct-24 04:33N 38°60' E 117°47'0 0.0
2014-Oct-24 03:33N 38°60' E 117°47'0 0.0
2014-Oct-24 02:33N 38°60' E 117°47'0 0.0
2014-Oct-24 01:33N 38°60' E 117°47'0 0.0
2014-Oct-24 00:27N 38°60' E 117°47'0 0.0
2014-Oct-23 23:27N 38°60' E 117°47'0 0.0
2014-Oct-23 22:21N 38°60' E 117°47'0 0.0
2014-Oct-23 21:33N 38°60' E 117°47'0 0.0
2014-Oct-23 20:21N 38°60' E 117°47'0 0.0
2014-Oct-23 19:27N 38°60' E 117°47'0 0.0
2014-Oct-23 18:27N 38°60' E 117°47'0 0.0
2014-Oct-23 17:25N 38°60' E 117°47'0 0.0
2014-Oct-23 16:31N 38°60' E 117°47'0 0.0
2014-Oct-23 15:29N 38°60' E 117°47'6 6.9
2014-Oct-23 14:33N 38°57' E 117°54'13 6.4
2014-Oct-23 12:27N 38°55' E 118°11'145 6.8
2014-Oct-22 15:09N 38°28' E 121°13'913.8
2014-Oct-22 14:31N 38°24' E 121°24'4413.2
2014-Oct-22 11:12N 38°02' E 122°11'813.1
2014-Oct-22 10:33N 37°57' E 122°20'1713.7
2014-Oct-22 09:17N 37°49' E 122°39'1314.1
2014-Oct-22 08:23N 37°38' E 122°48'1613.9
2014-Oct-22 07:15N 37°24' E 122°56'1113.0
2014-Oct-22 06:24N 37°15' E 123°05'2111.3
2014-Oct-22 04:31N 36°55' E 123°12'32711.9
2014-Oct-21 01:10N 31°28' E 123°14'814.0
2014-Oct-21 00:33N 31°20' E 123°14'1414.2
2014-Oct-20 23:33N 31°06' E 123°14'1312.9
2014-Oct-20 22:33N 30°53' E 123°14'1313.2
2014-Oct-20 21:32N 30°39' E 123°14'1313.1
2014-Oct-20 20:33N 30°26' E 123°13'2912.7
2014-Oct-20 18:16N 29°58' E 123°08'37412.5
2014-Oct-19 12:26N 24°42' E 119°23'1011.5
2014-Oct-19 11:33N 24°35' E 119°15'3912.9
2014-Oct-19 08:29N 24°09' E 118°42'1213.0
2014-Oct-19 07:33N 24°00' E 118°33'1312.5
2014-Oct-19 06:33N 23°51' E 118°24'1212.2
2014-Oct-19 05:33N 23°44' E 118°13'1312.0
2014-Oct-19 04:29N 23°35' E 118°02'24811.8
2014-Oct-18 07:33N 21°57' E 113°55'9 9.1
2014-Oct-18 06:33N 22°05' E 113°51'1212.2
2014-Oct-18 05:33N 22°17' E 113°48'1312.9
2014-Oct-18 04:33N 22°30' E 113°45'11 0.5
2014-Oct-17 07:33N 22°39' E 113°41'0 0.0
2014-Oct-17 01:27N 22°39' E 113°41'9 8.8
2014-Oct-17 00:26N 22°31' E 113°44'1011.7
2014-Oct-16 23:33N 22°21' E 113°47'1312.5
2014-Oct-16 22:33N 22°09' E 113°51'10 9.7
2014-Oct-16 21:33N 21°60' E 113°53'7 0.8
2014-Oct-16 12:10N 21°54' E 113°58'0 0.0
2014-Oct-16 09:28N 21°54' E 113°58'24810.3
2014-Oct-15 09:19N 23°34' E 118°05'1214.5
2014-Oct-15 08:29N 23°42' E 118°14'1212.9
2014-Oct-15 07:33N 23°51' E 118°23'1312.9
2014-Oct-15 06:32N 24°00' E 118°34'2612.7
2014-Oct-15 04:28N 24°18' E 118°54'1712.9
2014-Oct-15 03:09N 24°29' E 119°08'813.3
2014-Oct-15 02:33N 24°33' E 119°16'  
Track history (hours):
 
Tides and Currents Weather Stations Pressure Air Temp Water Temp Dewpoint Dewpoint Depression Visibility Wind Speed Wind Dir Waves Ship Positions

Xin Dan Dong

Last reported at 2014-Oct-24 09:33 UTC. Time now 2014-Oct-25 00:34 UTC.
Position N 38°53' E 118°09'.

Length 263 m; draft 7.3 m.

Type: Cargo ship. MMSI: 413153000.

Date/timePositionNaut miles runAvg speedWind from/ knotsBaromVisibWave heightAir tempDewpointWater temp
2014-Oct-24 09:33N 38°53' E 118°09'1111.3
2014-Oct-24 08:33N 38°57' E 117°55'7 7.3
2014-Oct-24 07:33N 38°60' E 117°47'0 0.1
2014-Oct-24 06:27N 38°60' E 117°47'0 0.0
2014-Oct-24 05:33N 38°60' E 117°47'0 0.0
2014-Oct-24 04:33N 38°60' E 117°47'0 0.0
2014-Oct-24 03:33N 38°60' E 117°47'0 0.0
2014-Oct-24 02:33N 38°60' E 117°47'0 0.0
2014-Oct-24 01:33N 38°60' E 117°47'0 0.0
2014-Oct-24 00:27N 38°60' E 117°47'0 0.0
2014-Oct-23 23:27N 38°60' E 117°47'0 0.0
2014-Oct-23 22:21N 38°60' E 117°47'0 0.0
2014-Oct-23 21:33N 38°60' E 117°47'0 0.0
2014-Oct-23 20:21N 38°60' E 117°47'0 0.0
2014-Oct-23 19:27N 38°60' E 117°47'0 0.0
2014-Oct-23 18:27N 38°60' E 117°47'0 0.0
2014-Oct-23 17:25N 38°60' E 117°47'0 0.0
2014-Oct-23 16:31N 38°60' E 117°47'0 0.0
2014-Oct-23 15:29N 38°60' E 117°47'6 6.9
2014-Oct-23 14:33N 38°57' E 117°54'13 6.4
2014-Oct-23 12:27N 38°55' E 118°11'145 6.8
2014-Oct-22 15:09N 38°28' E 121°13'913.8
2014-Oct-22 14:31N 38°24' E 121°24'4413.2
2014-Oct-22 11:12N 38°02' E 122°11'813.1
2014-Oct-22 10:33N 37°57' E 122°20'1713.7
2014-Oct-22 09:17N 37°49' E 122°39'1314.1
2014-Oct-22 08:23N 37°38' E 122°48'1613.9
2014-Oct-22 07:15N 37°24' E 122°56'1113.0
2014-Oct-22 06:24N 37°15' E 123°05'2111.3
2014-Oct-22 04:31N 36°55' E 123°12'32711.9
2014-Oct-21 01:10N 31°28' E 123°14'814.0
2014-Oct-21 00:33N 31°20' E 123°14'1414.2
2014-Oct-20 23:33N 31°06' E 123°14'1312.9
2014-Oct-20 22:33N 30°53' E 123°14'1313.2
2014-Oct-20 21:32N 30°39' E 123°14'1313.1
2014-Oct-20 20:33N 30°26' E 123°13'2912.7
2014-Oct-20 18:16N 29°58' E 123°08'37412.5
2014-Oct-19 12:26N 24°42' E 119°23'1011.5
2014-Oct-19 11:33N 24°35' E 119°15'3912.9
2014-Oct-19 08:29N 24°09' E 118°42'1213.0
2014-Oct-19 07:33N 24°00' E 118°33'1312.5
2014-Oct-19 06:33N 23°51' E 118°24'1212.2
2014-Oct-19 05:33N 23°44' E 118°13'1312.0
2014-Oct-19 04:29N 23°35' E 118°02'24811.8
2014-Oct-18 07:33N 21°57' E 113°55'9 9.1
2014-Oct-18 06:33N 22°05' E 113°51'1212.2
2014-Oct-18 05:33N 22°17' E 113°48'1312.9
2014-Oct-18 04:33N 22°30' E 113°45'11 0.5
2014-Oct-17 07:33N 22°39' E 113°41'0 0.0
2014-Oct-17 01:27N 22°39' E 113°41'9 8.8
2014-Oct-17 00:26N 22°31' E 113°44'1011.7
2014-Oct-16 23:33N 22°21' E 113°47'1312.5
2014-Oct-16 22:33N 22°09' E 113°51'10 9.7
2014-Oct-16 21:33N 21°60' E 113°53'7 0.8
2014-Oct-16 12:10N 21°54' E 113°58'0 0.0
2014-Oct-16 09:28N 21°54' E 113°58'24810.3
2014-Oct-15 09:19N 23°34' E 118°05'1214.5
2014-Oct-15 08:29N 23°42' E 118°14'1212.9
2014-Oct-15 07:33N 23°51' E 118°23'1312.9
2014-Oct-15 06:32N 24°00' E 118°34'2612.7
2014-Oct-15 04:28N 24°18' E 118°54'1712.9
2014-Oct-15 03:09N 24°29' E 119°08'813.3
2014-Oct-15 02:33N 24°33' E 119°16'  

Dump ship's entire track history